createdAt,value
2023-03-26T00:00:00.303Z,74.00
2023-03-26T00:02:33.835Z,73.98
2023-03-26T00:05:07.001Z,74.13
2023-03-26T00:07:39.302Z,74.35
2023-03-26T00:10:12.418Z,74.39
2023-03-26T00:12:45.042Z,74.47
2023-03-26T00:15:17.242Z,74.33
2023-03-26T00:17:49.425Z,74.31
2023-03-26T00:20:21.670Z,74.40
2023-03-26T00:22:55.203Z,74.30
2023-03-26T00:25:27.462Z,74.16
2023-03-26T00:28:00.002Z,74.14
2023-03-26T00:30:32.391Z,74.19
2023-03-26T00:33:04.951Z,74.39
2023-03-26T00:35:43.360Z,74.27
2023-03-26T00:38:16.671Z,74.47
2023-03-26T00:40:50.884Z,74.57
2023-03-26T00:43:26.618Z,74.53
2023-03-26T00:45:58.824Z,74.50
2023-03-26T00:48:38.340Z,74.47
2023-03-26T00:51:19.250Z,74.24
2023-03-26T00:53:52.364Z,74.16
2023-03-26T00:56:24.724Z,74.20
2023-03-26T00:58:57.797Z,74.22
2023-03-26T01:01:31.770Z,74.38
2023-03-26T01:04:27.919Z,74.57
2023-03-26T01:07:06.064Z,74.51
2023-03-26T01:09:43.005Z,74.71
2023-03-26T01:12:18.652Z,74.72
2023-03-26T01:14:52.897Z,74.76
2023-03-26T01:17:26.111Z,74.53
2023-03-26T01:20:13.336Z,74.48
2023-03-26T01:22:51.265Z,74.39
2023-03-26T01:25:28.091Z,74.47
2023-03-26T01:28:01.095Z,74.56
2023-03-26T01:30:42.438Z,74.73
2023-03-26T01:33:22.642Z,74.70
2023-03-26T01:36:00.036Z,74.85
2023-03-26T01:38:46.731Z,74.77
2023-03-26T01:41:22.673Z,74.74
2023-03-26T01:43:59.607Z,74.62
2023-03-26T01:46:36.378Z,74.66
2023-03-26T01:49:13.260Z,74.55
2023-03-26T01:51:46.015Z,74.42
2023-03-26T01:54:21.257Z,74.61
2023-03-26T01:57:02.794Z,74.52
2023-03-26T01:59:50.590Z,74.71
2023-03-26T02:02:28.985Z,74.82
2023-03-26T02:05:11.114Z,74.94
2023-03-26T02:07:51.304Z,74.95
2023-03-26T02:10:28.977Z,74.96
2023-03-26T02:13:01.915Z,74.95
2023-03-26T02:15:34.524Z,74.85
2023-03-26T02:18:07.002Z,74.73
2023-03-26T02:20:39.251Z,74.66
2023-03-26T02:23:11.490Z,74.71
2023-03-26T02:25:43.950Z,74.96
2023-03-26T02:28:17.086Z,74.78
2023-03-26T02:30:49.351Z,75.04
2023-03-26T02:33:21.698Z,75.15
2023-03-26T02:35:54.146Z,75.23
2023-03-26T02:38:27.068Z,75.17
2023-03-26T02:40:59.306Z,75.31
2023-03-26T02:43:38.288Z,75.18
2023-03-26T02:46:12.553Z,75.02
2023-03-26T02:49:00.214Z,75.18
2023-03-26T02:51:35.093Z,75.06
2023-03-26T02:54:20.542Z,75.11
2023-03-26T02:57:04.605Z,75.07
2023-03-26T02:59:46.450Z,75.20
2023-03-26T03:02:38.496Z,75.32
2023-03-26T03:05:31.557Z,75.45
2023-03-26T03:08:29.303Z,75.37
2023-03-26T03:11:15.555Z,75.42
2023-03-26T03:13:49.602Z,75.18
2023-03-26T03:16:24.969Z,75.24
2023-03-26T03:18:58.404Z,75.28
2023-03-26T03:21:42.145Z,75.37
2023-03-26T03:24:18.603Z,75.51
2023-03-26T03:26:56.951Z,75.72
2023-03-26T03:29:53.657Z,75.75
2023-03-26T03:32:45.842Z,75.72
2023-03-26T03:35:19.833Z,75.61
2023-03-26T03:37:54.957Z,75.41
2023-03-26T03:40:27.863Z,75.40
2023-03-26T03:43:00.457Z,75.59
2023-03-26T03:45:39.444Z,75.52
2023-03-26T03:48:38.437Z,75.62
2023-03-26T03:51:11.548Z,75.73
2023-03-26T03:54:12.607Z,75.90
2023-03-26T03:56:51.245Z,75.94
2023-03-26T03:59:38.976Z,75.87
2023-03-26T04:02:26.788Z,75.90
2023-03-26T04:05:02.937Z,75.80
2023-03-26T04:07:36.001Z,75.46
2023-03-26T04:10:10.401Z,75.59
2023-03-26T04:13:05.814Z,75.51
2023-03-26T04:15:58.709Z,75.65
2023-03-26T04:18:32.473Z,75.74
2023-03-26T04:21:12.831Z,75.87
2023-03-26T04:23:45.381Z,76.09
2023-03-26T04:26:43.024Z,75.87
2023-03-26T04:29:24.538Z,76.00
2023-03-26T04:32:06.606Z,75.93
2023-03-26T04:34:39.065Z,75.93
2023-03-26T04:37:21.661Z,75.66
2023-03-26T04:40:06.878Z,75.69
2023-03-26T04:43:00.034Z,75.69
2023-03-26T04:45:55.753Z,75.82
2023-03-26T04:48:30.473Z,76.07
2023-03-26T04:51:03.353Z,76.20
2023-03-26T04:53:36.525Z,76.12
2023-03-26T04:56:38.575Z,76.21
2023-03-26T04:59:30.180Z,76.11
2023-03-26T05:02:03.135Z,75.94
2023-03-26T05:04:40.795Z,75.91
2023-03-26T05:07:17.829Z,75.90
2023-03-26T05:09:53.208Z,75.91
2023-03-26T05:12:28.793Z,75.99
2023-03-26T05:15:10.199Z,76.18
2023-03-26T05:17:58.139Z,76.44
2023-03-26T05:20:50.752Z,76.45
2023-03-26T05:23:23.409Z,76.44
2023-03-26T05:26:01.085Z,76.30
2023-03-26T05:28:33.485Z,76.06
2023-03-26T05:31:15.654Z,76.18
2023-03-26T05:33:50.580Z,76.20
2023-03-26T05:36:22.855Z,76.18
2023-03-26T05:39:04.935Z,76.42
2023-03-26T05:41:57.103Z,76.40
2023-03-26T05:44:35.391Z,76.56
2023-03-26T05:47:10.172Z,76.52
2023-03-26T05:49:42.407Z,76.51
2023-03-26T05:52:18.786Z,76.39
2023-03-26T05:55:14.316Z,76.18
2023-03-26T05:58:04.928Z,76.24
2023-03-26T06:01:02.720Z,76.23
2023-03-26T06:03:39.588Z,76.31
2023-03-26T06:06:19.454Z,76.54
2023-03-26T06:09:01.578Z,76.83
2023-03-26T06:11:35.925Z,76.64
2023-03-26T06:14:09.683Z,76.73
2023-03-26T06:16:45.434Z,76.76
2023-03-26T06:19:23.265Z,76.47
2023-03-26T06:22:01.174Z,76.38
2023-03-26T06:24:38.500Z,76.60
2023-03-26T06:27:10.698Z,76.62
2023-03-26T06:30:00.612Z,76.84
2023-03-26T06:32:47.126Z,76.90
2023-03-26T06:35:24.782Z,76.74
2023-03-26T06:37:57.184Z,76.70
2023-03-26T06:40:29.467Z,76.81
2023-03-26T06:43:14.250Z,76.67
2023-03-26T06:45:59.695Z,76.45
2023-03-26T06:48:52.176Z,76.60
2023-03-26T06:51:47.587Z,76.68
2023-03-26T06:54:38.210Z,76.76
2023-03-26T06:57:52.732Z,76.80
2023-03-26T07:00:43.570Z,76.88
2023-03-26T07:03:36.050Z,76.83
2023-03-26T07:06:34.723Z,76.89
2023-03-26T07:09:26.414Z,76.68
2023-03-26T07:12:17.887Z,76.85
2023-03-26T07:14:50.081Z,76.89
2023-03-26T07:17:40.893Z,76.84
2023-03-26T07:20:28.992Z,77.27
2023-03-26T07:23:04.437Z,77.28
2023-03-26T07:25:42.185Z,77.10
2023-03-26T07:28:41.613Z,77.09
2023-03-26T07:31:28.675Z,77.23
2023-03-26T07:34:39.399Z,77.10
2023-03-26T07:37:51.649Z,76.73
2023-03-26T07:41:03.891Z,77.01
2023-03-26T07:43:48.595Z,76.72
2023-03-26T07:46:47.900Z,76.72
2023-03-26T07:49:43.486Z,77.04
2023-03-26T07:52:19.215Z,77.11
2023-03-26T07:55:17.001Z,77.26
2023-03-26T07:58:22.021Z,77.42
2023-03-26T08:01:16.585Z,77.27
2023-03-26T08:04:24.965Z,77.41
2023-03-26T08:07:26.885Z,77.31
2023-03-26T08:10:22.739Z,77.57
2023-03-26T08:13:11.431Z,77.51
2023-03-26T08:15:53.554Z,77.78
2023-03-26T08:18:41.397Z,77.71
2023-03-26T08:21:18.295Z,77.67
2023-03-26T08:24:04.940Z,77.53
2023-03-26T08:26:47.770Z,77.47
2023-03-26T08:29:29.605Z,77.49
2023-03-26T08:32:04.222Z,77.06
2023-03-26T08:34:36.124Z,76.91
2023-03-26T08:37:10.050Z,76.71
2023-03-26T08:39:42.588Z,76.87
2023-03-26T08:42:36.655Z,77.11
2023-03-26T08:45:56.717Z,77.09
2023-03-26T08:49:15.968Z,77.14
2023-03-26T08:52:23.099Z,77.31
2023-03-26T08:55:14.856Z,77.38
2023-03-26T08:58:10.659Z,77.21
2023-03-26T09:01:03.753Z,77.12
2023-03-26T09:04:09.231Z,77.23
2023-03-26T09:07:22.710Z,77.46
2023-03-26T09:10:18.726Z,78.23
2023-03-26T09:13:21.588Z,78.30
2023-03-26T09:16:22.272Z,78.48
2023-03-26T09:19:26.857Z,78.61
2023-03-26T09:22:31.767Z,78.21
2023-03-26T09:25:24.232Z,78.34
2023-03-26T09:28:36.767Z,78.55
2023-03-26T09:31:23.862Z,78.71
2023-03-26T09:34:08.538Z,78.65
2023-03-26T09:36:54.848Z,78.23
2023-03-26T09:39:49.982Z,77.81
2023-03-26T09:42:32.807Z,77.75
2023-03-26T09:45:23.404Z,77.68
2023-03-26T09:48:25.089Z,77.42
2023-03-26T09:51:12.660Z,77.41
2023-03-26T09:54:06.166Z,77.63
2023-03-26T09:56:48.257Z,77.05
2023-03-26T09:59:41.636Z,76.97
2023-03-26T10:02:45.463Z,77.00
2023-03-26T10:05:41.581Z,77.66
2023-03-26T10:08:31.589Z,77.24
2023-03-26T10:11:12.449Z,76.83
2023-03-26T10:14:00.800Z,77.14
2023-03-26T10:16:42.982Z,77.50
2023-03-26T10:19:39.822Z,76.92
2023-03-26T10:22:28.216Z,76.85
2023-03-26T10:25:23.378Z,77.18
2023-03-26T10:28:07.046Z,77.20
2023-03-26T10:30:57.390Z,76.83
2023-03-26T10:33:36.200Z,76.84
2023-03-26T10:36:31.385Z,76.76
2023-03-26T10:39:37.580Z,76.73
2023-03-26T10:42:32.896Z,76.87
2023-03-26T10:45:28.607Z,76.63
2023-03-26T10:48:29.336Z,76.76
2023-03-26T10:51:23.218Z,76.70
2023-03-26T10:53:59.643Z,76.72
2023-03-26T10:56:36.853Z,76.72
2023-03-26T10:59:13.264Z,76.63
2023-03-26T11:01:54.323Z,76.42
2023-03-26T11:04:38.561Z,76.07
2023-03-26T11:07:21.824Z,76.14
2023-03-26T11:10:02.177Z,76.18
2023-03-26T11:12:44.060Z,76.23
2023-03-26T11:15:25.176Z,76.23
2023-03-26T11:18:11.612Z,76.12
2023-03-26T11:20:49.587Z,76.40
2023-03-26T11:23:35.628Z,76.46
2023-03-26T11:26:18.889Z,76.77
2023-03-26T11:29:31.499Z,76.69
2023-03-26T11:32:12.075Z,76.31
2023-03-26T11:34:50.425Z,76.03
2023-03-26T11:37:33.313Z,75.30
2023-03-26T11:40:15.628Z,75.78
2023-03-26T11:42:48.148Z,75.64
2023-03-26T11:45:24.370Z,75.48
2023-03-26T11:48:04.209Z,75.27
2023-03-26T11:50:42.847Z,74.94
2023-03-26T11:53:19.367Z,74.92
2023-03-26T11:55:59.275Z,75.24
2023-03-26T11:58:34.620Z,75.25
2023-03-26T12:01:17.271Z,75.02
2023-03-26T12:04:05.666Z,75.00
2023-03-26T12:06:37.926Z,74.92
2023-03-26T12:09:19.046Z,74.71
2023-03-26T12:12:00.502Z,74.73
2023-03-26T12:14:36.085Z,74.48
2023-03-26T12:17:14.592Z,74.73
2023-03-26T12:19:47.586Z,74.78
2023-03-26T12:22:37.426Z,74.52
2023-03-26T12:25:21.260Z,74.50
2023-03-26T12:28:02.617Z,74.79
2023-03-26T12:30:37.397Z,74.73
2023-03-26T12:33:14.430Z,74.49
2023-03-26T12:35:47.076Z,73.99
2023-03-26T12:38:33.457Z,73.76
2023-03-26T12:44:42.053Z,73.87
2023-03-26T12:44:47.788Z,74.19
2023-03-26T12:48:00.711Z,73.83
2023-03-26T12:50:17.362Z,73.27
2023-03-26T12:53:03.580Z,73.41
2023-03-26T12:56:00.424Z,73.24
2023-03-26T12:58:57.224Z,72.80
2023-03-26T13:01:40.209Z,72.84
2023-03-26T13:04:30.217Z,72.92
2023-03-26T13:07:13.508Z,72.68
2023-03-26T13:10:09.590Z,72.63
2023-03-26T13:12:47.477Z,72.64
2023-03-26T13:15:26.727Z,72.42
2023-03-26T13:18:16.715Z,72.42
2023-03-26T13:21:00.636Z,72.51
2023-03-26T13:23:44.326Z,72.30
2023-03-26T13:26:27.716Z,72.30
2023-03-26T13:29:09.215Z,72.32
2023-03-26T13:31:48.070Z,72.22
2023-03-26T13:34:30.515Z,71.89
2023-03-26T13:37:16.073Z,72.01
2023-03-26T13:39:59.553Z,71.83
2023-03-26T13:42:50.793Z,71.77
2023-03-26T13:45:43.300Z,71.86
2023-03-26T13:48:22.583Z,71.89
2023-03-26T13:51:03.424Z,71.90
2023-03-26T13:53:43.305Z,71.65
2023-03-26T13:56:20.637Z,71.37
2023-03-26T13:58:57.666Z,71.72
2023-03-26T14:01:36.356Z,71.75
2023-03-26T14:04:19.420Z,71.89
2023-03-26T14:06:57.592Z,71.94
2023-03-26T14:09:35.707Z,71.93
2023-03-26T14:12:24.795Z,71.86
2023-03-26T14:15:01.431Z,71.94
2023-03-26T14:17:40.703Z,71.76
2023-03-26T14:20:44.613Z,71.50
2023-03-26T14:23:40.230Z,71.84
2023-03-26T14:26:25.228Z,71.98
2023-03-26T14:29:30.281Z,72.05
2023-03-26T14:32:13.756Z,71.91
2023-03-26T14:35:06.202Z,71.79
2023-03-26T14:37:53.908Z,71.84
2023-03-26T14:40:39.633Z,71.65
2023-03-26T14:43:39.805Z,71.72
2023-03-26T14:46:21.401Z,71.75
2023-03-26T14:49:14.720Z,71.62
2023-03-26T14:52:01.658Z,71.36
2023-03-26T14:54:39.050Z,71.59
2023-03-26T14:57:50.073Z,71.31
2023-03-26T15:01:09.186Z,71.22
2023-03-26T15:04:29.822Z,71.25
2023-03-26T15:07:52.901Z,70.77
2023-03-26T15:10:40.908Z,71.08
2023-03-26T15:13:45.943Z,71.22
2023-03-26T15:16:46.476Z,71.21
2023-03-26T15:19:41.869Z,71.14
2023-03-26T15:22:52.622Z,70.44
2023-03-26T15:25:51.784Z,70.68
2023-03-26T15:29:15.025Z,70.88
2023-03-26T15:32:11.381Z,71.01
2023-03-26T15:35:07.489Z,70.66
2023-03-26T15:38:15.333Z,70.58
2023-03-26T15:40:57.969Z,70.60
2023-03-26T15:44:24.389Z,70.66
2023-03-26T15:47:18.762Z,70.50
2023-03-26T15:49:56.157Z,70.62
2023-03-26T15:52:33.649Z,70.37
2023-03-26T15:55:20.897Z,70.52
2023-03-26T15:58:03.338Z,70.51
2023-03-26T16:00:43.094Z,70.43
2023-03-26T16:03:27.476Z,70.63
2023-03-26T16:06:31.307Z,70.57
2023-03-26T16:09:18.738Z,70.74
2023-03-26T16:11:57.544Z,70.72
2023-03-26T16:14:46.009Z,70.66
2023-03-26T16:17:20.785Z,70.74
2023-03-26T16:20:13.731Z,70.55
2023-03-26T16:22:59.769Z,70.34
2023-03-26T16:25:36.554Z,70.48
2023-03-26T16:28:27.129Z,70.68
2023-03-26T16:31:37.490Z,70.49
2023-03-26T16:34:40.896Z,70.32
2023-03-26T16:37:46.004Z,70.21
2023-03-26T16:41:00.055Z,70.36
2023-03-26T16:43:56.329Z,70.18
2023-03-26T16:46:39.321Z,69.99
2023-03-26T16:49:23.464Z,70.13
2023-03-26T16:52:09.799Z,70.13
2023-03-26T16:57:39.778Z,70.30
2023-03-26T17:00:35.730Z,70.48
2023-03-26T17:03:26.863Z,70.39
2023-03-26T17:06:06.640Z,70.41
2023-03-26T17:08:47.142Z,70.33
2023-03-26T17:11:27.802Z,70.39
2023-03-26T17:14:13.446Z,70.48
2023-03-26T17:16:49.464Z,70.53
2023-03-26T17:19:33.020Z,70.53
2023-03-26T17:22:13.147Z,70.52
2023-03-26T17:24:51.017Z,70.26
2023-03-26T17:27:52.859Z,70.04
2023-03-26T17:30:46.221Z,69.93
2023-03-26T17:33:29.571Z,69.89
2023-03-26T17:36:41.235Z,70.15
2023-03-26T17:39:38.460Z,70.12
2023-03-26T17:42:27.096Z,70.27
2023-03-26T17:45:00.502Z,70.26
2023-03-26T17:50:50.152Z,70.18
2023-03-26T17:53:28.397Z,70.18
2023-03-26T17:56:03.913Z,70.48
2023-03-26T17:58:42.681Z,70.29
2023-03-26T18:01:24.702Z,70.27
2023-03-26T18:04:00.165Z,70.04
2023-03-26T18:06:49.292Z,70.18
2023-03-26T18:09:36.043Z,70.27
2023-03-26T18:12:33.912Z,70.30
2023-03-26T18:15:27.937Z,70.30
2023-03-26T18:18:10.831Z,70.32
2023-03-26T18:20:47.063Z,70.19
2023-03-26T18:23:27.365Z,70.20
2023-03-26T18:26:12.437Z,70.14
2023-03-26T18:28:46.247Z,70.38
2023-03-26T18:31:24.037Z,70.38
2023-03-26T18:34:05.151Z,70.20
2023-03-26T18:36:38.634Z,70.26
2023-03-26T18:39:14.670Z,70.28
2023-03-26T18:41:48.030Z,70.39
2023-03-26T18:44:22.631Z,70.35
2023-03-26T18:46:56.405Z,70.43
2023-03-26T18:49:29.858Z,70.52
2023-03-26T18:52:02.254Z,70.46
2023-03-26T18:54:37.411Z,70.39
2023-03-26T18:57:21.612Z,70.41
2023-03-26T18:59:56.201Z,70.38
2023-03-26T19:02:28.881Z,69.97
2023-03-26T19:05:04.988Z,70.04
2023-03-26T19:07:37.933Z,70.04
2023-03-26T19:10:21.475Z,70.10
2023-03-26T19:13:02.626Z,70.13
2023-03-26T19:15:36.960Z,70.07
2023-03-26T19:18:14.215Z,70.23
2023-03-26T19:20:48.938Z,70.25
2023-03-26T19:23:24.114Z,70.32
2023-03-26T19:25:59.873Z,70.23
2023-03-26T19:28:34.918Z,70.28
2023-03-26T19:31:20.775Z,70.32
2023-03-26T19:34:00.593Z,70.01
2023-03-26T19:36:34.650Z,70.12
2023-03-26T19:39:17.430Z,70.25
2023-03-26T19:41:56.534Z,70.16
2023-03-26T19:44:30.626Z,70.23
2023-03-26T19:47:07.575Z,70.46
2023-03-26T19:49:53.072Z,70.49
2023-03-26T19:52:27.688Z,70.41
2023-03-26T19:55:03.495Z,70.46
2023-03-26T19:57:36.511Z,70.48
2023-03-26T20:00:14.499Z,70.34
2023-03-26T20:02:48.783Z,70.42
2023-03-26T20:05:25.337Z,70.41
2023-03-26T20:07:59.803Z,70.22
2023-03-26T20:10:32.216Z,70.16
2023-03-26T20:13:04.371Z,70.29
2023-03-26T20:15:38.341Z,70.47
2023-03-26T20:18:12.363Z,70.50
2023-03-26T20:20:45.161Z,70.49
2023-03-26T20:23:19.040Z,70.51
2023-03-26T20:25:54.920Z,70.51
2023-03-26T20:28:27.221Z,70.49
2023-03-26T20:30:59.606Z,70.59
2023-03-26T20:33:32.727Z,70.33
2023-03-26T20:36:05.737Z,70.39
2023-03-26T20:38:40.035Z,70.47
2023-03-26T20:41:17.188Z,70.63
2023-03-26T20:43:49.725Z,70.60
2023-03-26T20:46:23.848Z,70.87
2023-03-26T20:49:03.650Z,70.88
2023-03-26T20:51:38.233Z,70.99
2023-03-26T20:54:18.784Z,71.08
2023-03-26T20:56:51.209Z,71.10
2023-03-26T20:59:26.885Z,71.16
2023-03-26T21:02:00.440Z,71.21
2023-03-26T21:04:32.820Z,71.23
2023-03-26T21:07:17.856Z,71.06
2023-03-26T21:09:51.914Z,71.16
2023-03-26T21:12:31.551Z,71.04
2023-03-26T21:15:10.306Z,71.11
2023-03-26T21:17:51.195Z,71.24
2023-03-26T21:20:28.031Z,71.27
2023-03-26T21:23:08.886Z,71.28
2023-03-26T21:25:47.431Z,71.47
2023-03-26T21:28:41.370Z,71.43
2023-03-26T21:31:19.462Z,71.35
2023-03-26T21:33:56.928Z,71.24
2023-03-26T21:36:30.167Z,71.32
2023-03-26T21:39:05.326Z,71.23
2023-03-26T21:41:44.342Z,71.26
2023-03-26T21:44:18.598Z,71.34
2023-03-26T21:46:51.744Z,71.20
2023-03-26T21:49:25.177Z,71.16
2023-03-26T21:51:58.841Z,71.16
2023-03-26T21:54:33.442Z,71.20
2023-03-26T21:57:23.547Z,71.16
2023-03-26T22:00:08.250Z,71.20
2023-03-26T22:03:00.044Z,71.23
2023-03-26T22:05:43.489Z,71.26
2023-03-26T22:08:25.876Z,71.33
2023-03-26T22:10:58.492Z,71.26
2023-03-26T22:13:31.107Z,71.22
2023-03-26T22:16:04.909Z,71.15
2023-03-26T22:18:37.693Z,71.11
2023-03-26T22:21:10.591Z,70.97
2023-03-26T22:23:42.746Z,70.86
2023-03-26T22:26:14.873Z,70.86
2023-03-26T22:28:47.398Z,71.03
2023-03-26T22:31:19.645Z,71.23
2023-03-26T22:33:51.825Z,71.42
2023-03-26T22:36:25.366Z,71.36
2023-03-26T22:38:57.868Z,71.11
2023-03-26T22:41:52.493Z,71.16
2023-03-26T22:44:31.465Z,71.10
2023-03-26T22:47:05.898Z,70.98
2023-03-26T22:49:40.838Z,70.98
2023-03-26T22:52:13.708Z,70.92
2023-03-26T22:54:46.421Z,70.80
2023-03-26T22:57:18.954Z,70.82
2023-03-26T22:59:52.179Z,70.75
2023-03-26T23:02:24.403Z,70.83
2023-03-26T23:04:56.596Z,70.91
2023-03-26T23:07:28.704Z,71.06
2023-03-26T23:10:00.810Z,70.98
2023-03-26T23:12:32.891Z,70.97
2023-03-26T23:15:05.348Z,71.03
2023-03-26T23:17:38.848Z,70.82
2023-03-26T23:20:15.149Z,70.90
2023-03-26T23:22:47.841Z,70.80
2023-03-26T23:25:20.278Z,70.81
2023-03-26T23:27:53.790Z,70.65
2023-03-26T23:30:25.839Z,70.56
2023-03-26T23:32:58.457Z,70.61
2023-03-26T23:35:30.630Z,70.60
2023-03-26T23:38:02.794Z,70.62
2023-03-26T23:40:34.933Z,70.66
2023-03-26T23:43:07.020Z,70.80
2023-03-26T23:45:39.619Z,70.82
2023-03-26T23:48:13.580Z,70.87
2023-03-26T23:50:50.046Z,70.90
2023-03-26T23:53:24.779Z,70.83
2023-03-26T23:55:58.134Z,70.88
2023-03-26T23:58:31.583Z,70.86
